sensor_id;sensor_type;location;lat;lon;timestamp;P1;durP1;ratioP1;P2;durP2;ratioP2
36855;SDS011;22788;51.434;6.786;2023-08-12T00:01:23;4.82;;;3.97;;
36855;SDS011;22788;51.434;6.786;2023-08-12T00:03:49;5.30;;;3.90;;
36855;SDS011;22788;51.434;6.786;2023-08-12T00:06:16;5.72;;;4.38;;
36855;SDS011;22788;51.434;6.786;2023-08-12T00:08:41;5.43;;;4.35;;
36855;SDS011;22788;51.434;6.786;2023-08-12T00:11:07;5.07;;;4.28;;
36855;SDS011;22788;51.434;6.786;2023-08-12T00:13:32;4.18;;;3.75;;
36855;SDS011;22788;51.434;6.786;2023-08-12T00:15:58;4.88;;;4.22;;
36855;SDS011;22788;51.434;6.786;2023-08-12T00:18:24;5.05;;;4.22;;
36855;SDS011;22788;51.434;6.786;2023-08-12T00:20:49;7.22;;;4.80;;
36855;SDS011;22788;51.434;6.786;2023-08-12T00:23:16;4.30;;;3.88;;
36855;SDS011;22788;51.434;6.786;2023-08-12T00:25:42;6.18;;;4.70;;
36855;SDS011;22788;51.434;6.786;2023-08-12T00:28:07;5.30;;;4.07;;
36855;SDS011;22788;51.434;6.786;2023-08-12T00:30:33;8.60;;;4.32;;
36855;SDS011;22788;51.434;6.786;2023-08-12T00:32:58;6.95;;;4.35;;
36855;SDS011;22788;51.434;6.786;2023-08-12T00:35:24;4.55;;;4.13;;
36855;SDS011;22788;51.434;6.786;2023-08-12T00:37:50;4.55;;;4.13;;
36855;SDS011;22788;51.434;6.786;2023-08-12T00:40:17;6.15;;;4.50;;
36855;SDS011;22788;51.434;6.786;2023-08-12T00:42:43;4.90;;;3.95;;
36855;SDS011;22788;51.434;6.786;2023-08-12T00:45:09;5.63;;;4.35;;
36855;SDS011;22788;51.434;6.786;2023-08-12T00:47:35;4.85;;;4.30;;
36855;SDS011;22788;51.434;6.786;2023-08-12T00:50:01;4.57;;;4.18;;
36855;SDS011;22788;51.434;6.786;2023-08-12T00:52:27;6.40;;;4.47;;
36855;SDS011;22788;51.434;6.786;2023-08-12T00:54:53;7.20;;;4.13;;
36855;SDS011;22788;51.434;6.786;2023-08-12T00:57:20;5.35;;;4.18;;
36855;SDS011;22788;51.434;6.786;2023-08-12T00:59:46;4.60;;;4.10;;
36855;SDS011;22788;51.434;6.786;2023-08-12T01:02:12;6.43;;;4.80;;
36855;SDS011;22788;51.434;6.786;2023-08-12T01:04:38;4.80;;;4.00;;
36855;SDS011;22788;51.434;6.786;2023-08-12T01:07:03;5.50;;;4.50;;
36855;SDS011;22788;51.434;6.786;2023-08-12T01:09:29;5.28;;;4.35;;
36855;SDS011;22788;51.434;6.786;2023-08-12T01:11:57;4.82;;;4.35;;
36855;SDS011;22788;51.434;6.786;2023-08-12T01:14:31;4.50;;;4.10;;
36855;SDS011;22788;51.434;6.786;2023-08-12T01:17:02;5.65;;;3.95;;
36855;SDS011;22788;51.434;6.786;2023-08-12T01:19:33;4.18;;;3.47;;
36855;SDS011;22788;51.434;6.786;2023-08-12T01:22:00;4.55;;;4.00;;
36855;SDS011;22788;51.434;6.786;2023-08-12T01:24:32;6.18;;;4.22;;
36855;SDS011;22788;51.434;6.786;2023-08-12T01:26:59;4.97;;;4.32;;
36855;SDS011;22788;51.434;6.786;2023-08-12T01:29:24;5.15;;;4.32;;
36855;SDS011;22788;51.434;6.786;2023-08-12T01:31:51;5.82;;;4.10;;
36855;SDS011;22788;51.434;6.786;2023-08-12T01:34:20;6.30;;;4.43;;
36855;SDS011;22788;51.434;6.786;2023-08-12T01:36:54;6.53;;;4.03;;
36855;SDS011;22788;51.434;6.786;2023-08-12T01:39:21;4.80;;;3.95;;
36855;SDS011;22788;51.434;6.786;2023-08-12T01:41:49;6.32;;;4.20;;
36855;SDS011;22788;51.434;6.786;2023-08-12T01:44:16;5.57;;;4.22;;
36855;SDS011;22788;51.434;6.786;2023-08-12T01:46:42;6.05;;;4.18;;
36855;SDS011;22788;51.434;6.786;2023-08-12T01:49:09;7.15;;;4.13;;
36855;SDS011;22788;51.434;6.786;2023-08-12T01:51:34;5.25;;;4.25;;
36855;SDS011;22788;51.434;6.786;2023-08-12T01:54:00;6.82;;;4.05;;
36855;SDS011;22788;51.434;6.786;2023-08-12T01:56:26;5.13;;;3.97;;
36855;SDS011;22788;51.434;6.786;2023-08-12T01:58:53;5.72;;;4.07;;
36855;SDS011;22788;51.434;6.786;2023-08-12T02:01:18;6.15;;;4.35;;
36855;SDS011;22788;51.434;6.786;2023-08-12T02:03:44;7.18;;;4.13;;
36855;SDS011;22788;51.434;6.786;2023-08-12T02:06:09;5.10;;;3.95;;
36855;SDS011;22788;51.434;6.786;2023-08-12T02:08:35;5.65;;;4.22;;
36855;SDS011;22788;51.434;6.786;2023-08-12T02:11:01;5.82;;;3.80;;
36855;SDS011;22788;51.434;6.786;2023-08-12T02:13:26;4.97;;;4.00;;
36855;SDS011;22788;51.434;6.786;2023-08-12T02:15:53;5.65;;;3.80;;
36855;SDS011;22788;51.434;6.786;2023-08-12T02:18:19;5.18;;;4.32;;
36855;SDS011;22788;51.434;6.786;2023-08-12T02:20:46;4.60;;;4.07;;
36855;SDS011;22788;51.434;6.786;2023-08-12T02:23:12;6.00;;;4.13;;
36855;SDS011;22788;51.434;6.786;2023-08-12T02:25:38;5.95;;;4.30;;
36855;SDS011;22788;51.434;6.786;2023-08-12T02:28:03;6.00;;;4.32;;
36855;SDS011;22788;51.434;6.786;2023-08-12T02:30:29;5.47;;;4.57;;
36855;SDS011;22788;51.434;6.786;2023-08-12T02:32:56;6.10;;;4.15;;
36855;SDS011;22788;51.434;6.786;2023-08-12T02:35:22;6.05;;;4.20;;
36855;SDS011;22788;51.434;6.786;2023-08-12T02:37:48;6.05;;;4.32;;
36855;SDS011;22788;51.434;6.786;2023-08-12T02:40:14;5.45;;;4.00;;
36855;SDS011;22788;51.434;6.786;2023-08-12T02:42:39;5.70;;;3.97;;
36855;SDS011;22788;51.434;6.786;2023-08-12T02:45:05;4.75;;;4.00;;
36855;SDS011;22788;51.434;6.786;2023-08-12T02:47:31;4.88;;;3.85;;
36855;SDS011;22788;51.434;6.786;2023-08-12T02:49:58;4.72;;;4.25;;
36855;SDS011;22788;51.434;6.786;2023-08-12T02:52:24;4.00;;;3.60;;
36855;SDS011;22788;51.434;6.786;2023-08-12T02:54:49;4.22;;;3.70;;
36855;SDS011;22788;51.434;6.786;2023-08-12T02:57:15;5.65;;;3.83;;
36855;SDS011;22788;51.434;6.786;2023-08-12T02:59:41;4.97;;;4.45;;
36855;SDS011;22788;51.434;6.786;2023-08-12T03:02:06;6.28;;;3.95;;
36855;SDS011;22788;51.434;6.786;2023-08-12T03:04:32;4.90;;;4.20;;
36855;SDS011;22788;51.434;6.786;2023-08-12T03:06:59;4.85;;;3.95;;
36855;SDS011;22788;51.434;6.786;2023-08-12T03:09:24;4.75;;;3.90;;
36855;SDS011;22788;51.434;6.786;2023-08-12T03:11:50;5.25;;;4.68;;
36855;SDS011;22788;51.434;6.786;2023-08-12T03:14:16;6.18;;;4.28;;
36855;SDS011;22788;51.434;6.786;2023-08-12T03:16:41;4.70;;;4.25;;
36855;SDS011;22788;51.434;6.786;2023-08-12T03:19:07;4.30;;;3.88;;
36855;SDS011;22788;51.434;6.786;2023-08-12T03:21:33;4.40;;;3.80;;
36855;SDS011;22788;51.434;6.786;2023-08-12T03:23:59;4.70;;;4.10;;
36855;SDS011;22788;51.434;6.786;2023-08-12T03:26:25;4.82;;;4.20;;
36855;SDS011;22788;51.434;6.786;2023-08-12T03:28:51;4.60;;;3.90;;
36855;SDS011;22788;51.434;6.786;2023-08-12T03:31:16;4.53;;;4.05;;
36855;SDS011;22788;51.434;6.786;2023-08-12T03:33:42;4.72;;;4.00;;
36855;SDS011;22788;51.434;6.786;2023-08-12T03:36:08;5.60;;;4.40;;
36855;SDS011;22788;51.434;6.786;2023-08-12T03:38:33;5.75;;;4.50;;
36855;SDS011;22788;51.434;6.786;2023-08-12T03:41:00;4.82;;;4.25;;
36855;SDS011;22788;51.434;6.786;2023-08-12T03:43:26;5.75;;;4.40;;
36855;SDS011;22788;51.434;6.786;2023-08-12T03:45:51;6.13;;;4.53;;
36855;SDS011;22788;51.434;6.786;2023-08-12T03:48:17;4.50;;;4.10;;
36855;SDS011;22788;51.434;6.786;2023-08-12T03:50:43;4.60;;;4.20;;
36855;SDS011;22788;51.434;6.786;2023-08-12T03:53:08;6.45;;;4.93;;
36855;SDS011;22788;51.434;6.786;2023-08-12T03:55:34;7.57;;;4.85;;
36855;SDS011;22788;51.434;6.786;2023-08-12T03:58:01;7.60;;;4.40;;
36855;SDS011;22788;51.434;6.786;2023-08-12T04:00:27;4.75;;;4.25;;
36855;SDS011;22788;51.434;6.786;2023-08-12T04:02:53;5.63;;;4.25;;
36855;SDS011;22788;51.434;6.786;2023-08-12T04:05:19;7.90;;;5.20;;
36855;SDS011;22788;51.434;6.786;2023-08-12T04:07:44;4.78;;;4.38;;
36855;SDS011;22788;51.434;6.786;2023-08-12T04:10:10;7.90;;;4.85;;
36855;SDS011;22788;51.434;6.786;2023-08-12T04:12:36;7.90;;;5.47;;
36855;SDS011;22788;51.434;6.786;2023-08-12T04:15:04;6.25;;;4.80;;
36855;SDS011;22788;51.434;6.786;2023-08-12T04:17:30;6.63;;;4.70;;
36855;SDS011;22788;51.434;6.786;2023-08-12T04:19:56;5.47;;;4.70;;
36855;SDS011;22788;51.434;6.786;2023-08-12T04:22:21;7.45;;;4.60;;
36855;SDS011;22788;51.434;6.786;2023-08-12T04:24:47;7.50;;;4.95;;
36855;SDS011;22788;51.434;6.786;2023-08-12T04:27:12;6.20;;;4.97;;
36855;SDS011;22788;51.434;6.786;2023-08-12T04:29:38;6.20;;;5.28;;
36855;SDS011;22788;51.434;6.786;2023-08-12T04:32:05;7.05;;;5.38;;
36855;SDS011;22788;51.434;6.786;2023-08-12T04:34:31;5.55;;;5.00;;
36855;SDS011;22788;51.434;6.786;2023-08-12T04:36:56;6.95;;;5.50;;
36855;SDS011;22788;51.434;6.786;2023-08-12T04:39:22;5.40;;;4.90;;
36855;SDS011;22788;51.434;6.786;2023-08-12T04:41:48;6.05;;;5.30;;
36855;SDS011;22788;51.434;6.786;2023-08-12T04:44:13;5.18;;;4.72;;
36855;SDS011;22788;51.434;6.786;2023-08-12T04:46:39;8.90;;;5.55;;
36855;SDS011;22788;51.434;6.786;2023-08-12T04:49:08;10.15;;;8.13;;
36855;SDS011;22788;51.434;6.786;2023-08-12T04:51:34;6.60;;;5.60;;
36855;SDS011;22788;51.434;6.786;2023-08-12T04:53:59;6.50;;;5.22;;
36855;SDS011;22788;51.434;6.786;2023-08-12T04:56:28;6.18;;;4.90;;
36855;SDS011;22788;51.434;6.786;2023-08-12T04:58:54;6.47;;;5.30;;
36855;SDS011;22788;51.434;6.786;2023-08-12T05:01:20;7.10;;;5.55;;
36855;SDS011;22788;51.434;6.786;2023-08-12T05:03:45;8.32;;;5.30;;
36855;SDS011;22788;51.434;6.786;2023-08-12T05:06:12;9.10;;;6.82;;
36855;SDS011;22788;51.434;6.786;2023-08-12T05:08:38;6.60;;;5.20;;
36855;SDS011;22788;51.434;6.786;2023-08-12T05:11:04;6.72;;;5.15;;
36855;SDS011;22788;51.434;6.786;2023-08-12T05:13:29;6.63;;;5.50;;
36855;SDS011;22788;51.434;6.786;2023-08-12T05:15:55;5.40;;;4.80;;
36855;SDS011;22788;51.434;6.786;2023-08-12T05:18:22;5.93;;;5.00;;
36855;SDS011;22788;51.434;6.786;2023-08-12T05:20:48;7.63;;;6.32;;
36855;SDS011;22788;51.434;6.786;2023-08-12T05:23:15;7.32;;;5.43;;
36855;SDS011;22788;51.434;6.786;2023-08-12T05:25:41;6.45;;;5.75;;
36855;SDS011;22788;51.434;6.786;2023-08-12T05:28:06;5.40;;;4.85;;
36855;SDS011;22788;51.434;6.786;2023-08-12T05:30:33;6.40;;;5.05;;
36855;SDS011;22788;51.434;6.786;2023-08-12T05:32:59;7.20;;;5.53;;
36855;SDS011;22788;51.434;6.786;2023-08-12T05:35:24;8.48;;;6.32;;
36855;SDS011;22788;51.434;6.786;2023-08-12T05:37:50;7.30;;;5.57;;
36855;SDS011;22788;51.434;6.786;2023-08-12T05:40:17;9.68;;;7.10;;
36855;SDS011;22788;51.434;6.786;2023-08-12T05:42:43;7.38;;;6.00;;
36855;SDS011;22788;51.434;6.786;2023-08-12T05:45:08;7.25;;;5.75;;
36855;SDS011;22788;51.434;6.786;2023-08-12T05:47:34;7.75;;;5.85;;
36855;SDS011;22788;51.434;6.786;2023-08-12T05:50:00;7.95;;;7.10;;
36855;SDS011;22788;51.434;6.786;2023-08-12T05:52:26;6.18;;;5.57;;
36855;SDS011;22788;51.434;6.786;2023-08-12T05:54:51;7.88;;;6.10;;
36855;SDS011;22788;51.434;6.786;2023-08-12T05:57:18;6.53;;;5.63;;
36855;SDS011;22788;51.434;6.786;2023-08-12T05:59:44;9.75;;;6.35;;
36855;SDS011;22788;51.434;6.786;2023-08-12T06:02:09;8.73;;;5.97;;
36855;SDS011;22788;51.434;6.786;2023-08-12T06:04:35;8.00;;;5.85;;
36855;SDS011;22788;51.434;6.786;2023-08-12T06:07:00;7.67;;;6.00;;
36855;SDS011;22788;51.434;6.786;2023-08-12T06:09:26;7.43;;;6.13;;
36855;SDS011;22788;51.434;6.786;2023-08-12T06:11:52;8.02;;;5.82;;
36855;SDS011;22788;51.434;6.786;2023-08-12T06:14:19;9.65;;;6.68;;
36855;SDS011;22788;51.434;6.786;2023-08-12T06:16:44;10.60;;;6.25;;
36855;SDS011;22788;51.434;6.786;2023-08-12T06:19:10;8.95;;;6.65;;
36855;SDS011;22788;51.434;6.786;2023-08-12T06:21:35;10.73;;;7.00;;
36855;SDS011;22788;51.434;6.786;2023-08-12T06:24:01;8.00;;;5.50;;
36855;SDS011;22788;51.434;6.786;2023-08-12T06:26:27;7.75;;;6.65;;
36855;SDS011;22788;51.434;6.786;2023-08-12T06:28:52;5.47;;;4.97;;
36855;SDS011;22788;51.434;6.786;2023-08-12T06:31:19;10.18;;;6.50;;
36855;SDS011;22788;51.434;6.786;2023-08-12T06:33:45;7.57;;;5.47;;
36855;SDS011;22788;51.434;6.786;2023-08-12T06:36:11;9.70;;;7.03;;
36855;SDS011;22788;51.434;6.786;2023-08-12T06:38:36;7.40;;;5.43;;
36855;SDS011;22788;51.434;6.786;2023-08-12T06:41:02;7.03;;;5.88;;
36855;SDS011;22788;51.434;6.786;2023-08-12T06:43:27;6.22;;;5.63;;
36855;SDS011;22788;51.434;6.786;2023-08-12T06:45:53;8.00;;;6.30;;
36855;SDS011;22788;51.434;6.786;2023-08-12T06:48:20;6.25;;;5.65;;
36855;SDS011;22788;51.434;6.786;2023-08-12T06:50:45;7.05;;;5.43;;
36855;SDS011;22788;51.434;6.786;2023-08-12T06:53:17;7.95;;;5.35;;
36855;SDS011;22788;51.434;6.786;2023-08-12T06:55:43;9.35;;;6.00;;
36855;SDS011;22788;51.434;6.786;2023-08-12T06:58:09;6.93;;;5.38;;
36855;SDS011;22788;51.434;6.786;2023-08-12T07:00:35;6.45;;;5.68;;
36855;SDS011;22788;51.434;6.786;2023-08-12T07:03:00;7.05;;;5.57;;
36855;SDS011;22788;51.434;6.786;2023-08-12T07:05:27;7.07;;;5.60;;
36855;SDS011;22788;51.434;6.786;2023-08-12T07:07:53;6.28;;;5.60;;
36855;SDS011;22788;51.434;6.786;2023-08-12T07:10:18;6.50;;;5.82;;
36855;SDS011;22788;51.434;6.786;2023-08-12T07:12:44;7.15;;;6.20;;
36855;SDS011;22788;51.434;6.786;2023-08-12T07:15:10;7.22;;;5.93;;
36855;SDS011;22788;51.434;6.786;2023-08-12T07:17:35;7.82;;;6.00;;
36855;SDS011;22788;51.434;6.786;2023-08-12T07:20:01;7.03;;;6.00;;
36855;SDS011;22788;51.434;6.786;2023-08-12T07:22:28;6.90;;;6.07;;
36855;SDS011;22788;51.434;6.786;2023-08-12T07:24:54;7.10;;;6.30;;
36855;SDS011;22788;51.434;6.786;2023-08-12T07:27:19;7.75;;;5.70;;
36855;SDS011;22788;51.434;6.786;2023-08-12T07:29:45;6.10;;;5.32;;
36855;SDS011;22788;51.434;6.786;2023-08-12T07:32:10;9.23;;;5.93;;
36855;SDS011;22788;51.434;6.786;2023-08-12T07:34:36;8.35;;;6.30;;
36855;SDS011;22788;51.434;6.786;2023-08-12T07:37:02;5.88;;;5.28;;
36855;SDS011;22788;51.434;6.786;2023-08-12T07:39:29;6.65;;;5.93;;
36855;SDS011;22788;51.434;6.786;2023-08-12T07:41:54;5.72;;;5.20;;
36855;SDS011;22788;51.434;6.786;2023-08-12T07:44:20;7.03;;;4.90;;
36855;SDS011;22788;51.434;6.786;2023-08-12T07:46:46;6.80;;;5.47;;
36855;SDS011;22788;51.434;6.786;2023-08-12T07:49:11;5.25;;;4.75;;
36855;SDS011;22788;51.434;6.786;2023-08-12T07:51:37;5.75;;;5.15;;
36855;SDS011;22788;51.434;6.786;2023-08-12T07:54:02;5.40;;;4.30;;
36855;SDS011;22788;51.434;6.786;2023-08-12T07:56:30;6.75;;;5.07;;
36855;SDS011;22788;51.434;6.786;2023-08-12T07:58:55;5.13;;;4.45;;
36855;SDS011;22788;51.434;6.786;2023-08-12T08:01:21;5.72;;;5.10;;
36855;SDS011;22788;51.434;6.786;2023-08-12T08:03:46;5.57;;;5.07;;
36855;SDS011;22788;51.434;6.786;2023-08-12T08:06:12;5.07;;;4.25;;
36855;SDS011;22788;51.434;6.786;2023-08-12T08:08:38;7.10;;;5.32;;
36855;SDS011;22788;51.434;6.786;2023-08-12T08:11:03;6.22;;;5.10;;
36855;SDS011;22788;51.434;6.786;2023-08-12T08:13:30;5.28;;;4.78;;
36855;SDS011;22788;51.434;6.786;2023-08-12T08:15:56;4.88;;;4.30;;
36855;SDS011;22788;51.434;6.786;2023-08-12T08:18:21;4.80;;;4.22;;
36855;SDS011;22788;51.434;6.786;2023-08-12T08:20:47;5.38;;;4.72;;
36855;SDS011;22788;51.434;6.786;2023-08-12T08:23:12;5.13;;;4.15;;
36855;SDS011;22788;51.434;6.786;2023-08-12T08:25:38;4.75;;;4.20;;
36855;SDS011;22788;51.434;6.786;2023-08-12T08:28:04;6.25;;;4.88;;
36855;SDS011;22788;51.434;6.786;2023-08-12T08:30:31;4.70;;;4.30;;
36855;SDS011;22788;51.434;6.786;2023-08-12T08:32:56;5.18;;;4.68;;
36855;SDS011;22788;51.434;6.786;2023-08-12T08:35:22;5.93;;;4.50;;
36855;SDS011;22788;51.434;6.786;2023-08-12T08:37:48;4.75;;;4.35;;
36855;SDS011;22788;51.434;6.786;2023-08-12T08:40:13;5.03;;;4.30;;
36855;SDS011;22788;51.434;6.786;2023-08-12T08:42:39;4.93;;;4.45;;
36855;SDS011;22788;51.434;6.786;2023-08-12T08:45:08;5.60;;;4.70;;
36855;SDS011;22788;51.434;6.786;2023-08-12T08:47:39;4.60;;;4.20;;
36855;SDS011;22788;51.434;6.786;2023-08-12T08:50:05;4.35;;;3.95;;
36855;SDS011;22788;51.434;6.786;2023-08-12T08:52:33;5.15;;;4.60;;
36855;SDS011;22788;51.434;6.786;2023-08-12T08:54:59;4.93;;;4.35;;
36855;SDS011;22788;51.434;6.786;2023-08-12T08:57:26;4.15;;;3.85;;
36855;SDS011;22788;51.434;6.786;2023-08-12T08:59:51;5.68;;;4.43;;
36855;SDS011;22788;51.434;6.786;2023-08-12T09:02:17;6.18;;;4.03;;
36855;SDS011;22788;51.434;6.786;2023-08-12T09:04:45;4.25;;;3.85;;
36855;SDS011;22788;51.434;6.786;2023-08-12T09:07:11;4.85;;;4.32;;
36855;SDS011;22788;51.434;6.786;2023-08-12T09:09:38;6.13;;;4.25;;
36855;SDS011;22788;51.434;6.786;2023-08-12T09:12:07;5.68;;;4.30;;
36855;SDS011;22788;51.434;6.786;2023-08-12T09:14:34;4.35;;;3.95;;
36855;SDS011;22788;51.434;6.786;2023-08-12T09:17:00;5.05;;;4.25;;
36855;SDS011;22788;51.434;6.786;2023-08-12T09:19:26;4.25;;;3.85;;
36855;SDS011;22788;51.434;6.786;2023-08-12T09:21:54;4.30;;;3.90;;
36855;SDS011;22788;51.434;6.786;2023-08-12T09:24:23;3.65;;;3.35;;
36855;SDS011;22788;51.434;6.786;2023-08-12T09:26:51;5.28;;;3.85;;
36855;SDS011;22788;51.434;6.786;2023-08-12T09:29:17;4.95;;;3.80;;
36855;SDS011;22788;51.434;6.786;2023-08-12T09:31:42;4.22;;;3.83;;
36855;SDS011;22788;51.434;6.786;2023-08-12T09:34:08;5.18;;;4.10;;
36855;SDS011;22788;51.434;6.786;2023-08-12T09:36:34;4.90;;;4.00;;
36855;SDS011;22788;51.434;6.786;2023-08-12T09:39:05;4.30;;;3.78;;
36855;SDS011;22788;51.434;6.786;2023-08-12T09:41:31;4.10;;;3.45;;
36855;SDS011;22788;51.434;6.786;2023-08-12T09:43:56;5.72;;;4.03;;
36855;SDS011;22788;51.434;6.786;2023-08-12T09:46:22;4.53;;;3.17;;
36855;SDS011;22788;51.434;6.786;2023-08-12T09:48:49;4.45;;;4.05;;
36855;SDS011;22788;51.434;6.786;2023-08-12T09:51:14;4.60;;;4.18;;
36855;SDS011;22788;51.434;6.786;2023-08-12T09:53:42;6.88;;;4.57;;
36855;SDS011;22788;51.434;6.786;2023-08-12T09:56:11;4.85;;;3.75;;
36855;SDS011;22788;51.434;6.786;2023-08-12T09:58:37;4.82;;;3.97;;
36855;SDS011;22788;51.434;6.786;2023-08-12T10:01:04;4.28;;;3.88;;
36855;SDS011;22788;51.434;6.786;2023-08-12T10:03:33;4.10;;;3.47;;
36855;SDS011;22788;51.434;6.786;2023-08-12T10:05:59;4.15;;;3.75;;
36855;SDS011;22788;51.434;6.786;2023-08-12T10:08:25;4.53;;;3.58;;
36855;SDS011;22788;51.434;6.786;2023-08-12T10:10:52;6.70;;;3.47;;
36855;SDS011;22788;51.434;6.786;2023-08-12T10:13:19;4.35;;;3.40;;
36855;SDS011;22788;51.434;6.786;2023-08-12T10:15:46;4.97;;;3.50;;
36855;SDS011;22788;51.434;6.786;2023-08-12T10:18:12;3.65;;;3.35;;
36855;SDS011;22788;51.434;6.786;2023-08-12T10:20:39;3.58;;;3.20;;
36855;SDS011;22788;51.434;6.786;2023-08-12T10:23:05;4.13;;;2.80;;
36855;SDS011;22788;51.434;6.786;2023-08-12T10:25:32;3.50;;;3.20;;
36855;SDS011;22788;51.434;6.786;2023-08-12T10:27:58;5.63;;;4.03;;
36855;SDS011;22788;51.434;6.786;2023-08-12T10:30:25;4.43;;;3.70;;
36855;SDS011;22788;51.434;6.786;2023-08-12T10:32:53;3.55;;;3.25;;
36855;SDS011;22788;51.434;6.786;2023-08-12T10:35:19;3.30;;;3.00;;
36855;SDS011;22788;51.434;6.786;2023-08-12T10:37:47;3.33;;;3.03;;
36855;SDS011;22788;51.434;6.786;2023-08-12T10:40:19;3.78;;;3.47;;
36855;SDS011;22788;51.434;6.786;2023-08-12T10:42:45;3.83;;;3.30;;
36855;SDS011;22788;51.434;6.786;2023-08-12T10:45:13;3.60;;;3.30;;
36855;SDS011;22788;51.434;6.786;2023-08-12T10:47:42;3.30;;;2.95;;
36855;SDS011;22788;51.434;6.786;2023-08-12T10:50:18;3.40;;;3.00;;
36855;SDS011;22788;51.434;6.786;2023-08-12T10:52:45;3.17;;;2.55;;
36855;SDS011;22788;51.434;6.786;2023-08-12T10:55:18;3.53;;;3.20;;
36855;SDS011;22788;51.434;6.786;2023-08-12T10:57:45;3.45;;;3.05;;
36855;SDS011;22788;51.434;6.786;2023-08-12T11:00:11;3.03;;;2.83;;
36855;SDS011;22788;51.434;6.786;2023-08-12T11:02:39;4.03;;;3.22;;
36855;SDS011;22788;51.434;6.786;2023-08-12T11:05:10;3.33;;;3.03;;
36855;SDS011;22788;51.434;6.786;2023-08-12T11:07:37;4.22;;;2.90;;
36855;SDS011;22788;51.434;6.786;2023-08-12T11:10:04;4.38;;;3.20;;
36855;SDS011;22788;51.434;6.786;2023-08-12T11:12:35;2.95;;;2.65;;
36855;SDS011;22788;51.434;6.786;2023-08-12T11:15:01;5.63;;;2.90;;
36855;SDS011;22788;51.434;6.786;2023-08-12T11:17:29;2.92;;;2.67;;
36855;SDS011;22788;51.434;6.786;2023-08-12T11:19:57;2.90;;;2.60;;
36855;SDS011;22788;51.434;6.786;2023-08-12T11:22:25;3.72;;;3.25;;
36855;SDS011;22788;51.434;6.786;2023-08-12T11:24:51;3.08;;;2.78;;
36855;SDS011;22788;51.434;6.786;2023-08-12T11:27:17;3.35;;;3.05;;
36855;SDS011;22788;51.434;6.786;2023-08-12T11:29:43;4.40;;;3.05;;
36855;SDS011;22788;51.434;6.786;2023-08-12T11:32:08;3.78;;;3.20;;
36855;SDS011;22788;51.434;6.786;2023-08-12T11:34:34;2.92;;;2.63;;
36855;SDS011;22788;51.434;6.786;2023-08-12T11:37:00;3.10;;;2.70;;
36855;SDS011;22788;51.434;6.786;2023-08-12T11:39:29;2.70;;;2.40;;
36855;SDS011;22788;51.434;6.786;2023-08-12T11:41:55;2.90;;;2.70;;
36855;SDS011;22788;51.434;6.786;2023-08-12T11:44:21;3.60;;;2.40;;
36855;SDS011;22788;51.434;6.786;2023-08-12T11:46:47;2.63;;;2.42;;
36855;SDS011;22788;51.434;6.786;2023-08-12T11:49:13;2.63;;;2.42;;
36855;SDS011;22788;51.434;6.786;2023-08-12T11:51:39;2.95;;;2.58;;
36855;SDS011;22788;51.434;6.786;2023-08-12T11:54:05;3.00;;;2.63;;
36855;SDS011;22788;51.434;6.786;2023-08-12T11:56:32;3.15;;;2.25;;
36855;SDS011;22788;51.434;6.786;2023-08-12T11:58:57;3.30;;;2.30;;
36855;SDS011;22788;51.434;6.786;2023-08-12T12:01:24;4.10;;;2.65;;
36855;SDS011;22788;51.434;6.786;2023-08-12T12:03:50;2.35;;;2.17;;
36855;SDS011;22788;51.434;6.786;2023-08-12T12:06:16;4.72;;;2.92;;
36855;SDS011;22788;51.434;6.786;2023-08-12T12:08:43;4.45;;;3.33;;
36855;SDS011;22788;51.434;6.786;2023-08-12T12:11:09;2.63;;;2.42;;
36855;SDS011;22788;51.434;6.786;2023-08-12T12:13:36;5.15;;;2.67;;
36855;SDS011;22788;51.434;6.786;2023-08-12T12:16:02;3.53;;;2.78;;
36855;SDS011;22788;51.434;6.786;2023-08-12T12:18:28;4.47;;;2.90;;
36855;SDS011;22788;51.434;6.786;2023-08-12T12:20:54;4.07;;;3.53;;
36855;SDS011;22788;51.434;6.786;2023-08-12T12:23:20;2.60;;;2.35;;
36855;SDS011;22788;51.434;6.786;2023-08-12T12:25:46;4.05;;;3.35;;
36855;SDS011;22788;51.434;6.786;2023-08-12T12:28:11;5.03;;;3.00;;
36855;SDS011;22788;51.434;6.786;2023-08-12T12:30:38;2.78;;;2.42;;
36855;SDS011;22788;51.434;6.786;2023-08-12T12:33:04;3.42;;;3.13;;
36855;SDS011;22788;51.434;6.786;2023-08-12T12:35:30;3.67;;;2.75;;
36855;SDS011;22788;51.434;6.786;2023-08-12T12:37:56;3.55;;;2.85;;
36855;SDS011;22788;51.434;6.786;2023-08-12T12:40:21;3.60;;;2.85;;
36855;SDS011;22788;51.434;6.786;2023-08-12T12:42:47;2.65;;;2.45;;
36855;SDS011;22788;51.434;6.786;2023-08-12T12:45:13;3.10;;;2.80;;
36855;SDS011;22788;51.434;6.786;2023-08-12T12:47:40;2.83;;;2.50;;
36855;SDS011;22788;51.434;6.786;2023-08-12T12:50:06;3.38;;;3.08;;
36855;SDS011;22788;51.434;6.786;2023-08-12T12:52:32;3.70;;;3.40;;
36855;SDS011;22788;51.434;6.786;2023-08-12T12:54:57;3.80;;;3.15;;
36855;SDS011;22788;51.434;6.786;2023-08-12T12:57:23;3.55;;;3.00;;
36855;SDS011;22788;51.434;6.786;2023-08-12T12:59:48;3.60;;;3.30;;
36855;SDS011;22788;51.434;6.786;2023-08-12T13:02:14;3.97;;;3.67;;
36855;SDS011;22788;51.434;6.786;2023-08-12T13:04:41;3.95;;;3.58;;
36855;SDS011;22788;51.434;6.786;2023-08-12T13:07:07;3.10;;;2.80;;
36855;SDS011;22788;51.434;6.786;2023-08-12T13:09:32;3.97;;;3.60;;
36855;SDS011;22788;51.434;6.786;2023-08-12T13:11:58;3.30;;;3.00;;
36855;SDS011;22788;51.434;6.786;2023-08-12T13:14:24;4.50;;;3.45;;
36855;SDS011;22788;51.434;6.786;2023-08-12T13:16:49;3.33;;;3.03;;
36855;SDS011;22788;51.434;6.786;2023-08-12T13:19:15;3.42;;;3.13;;
36855;SDS011;22788;51.434;6.786;2023-08-12T13:21:42;6.75;;;5.88;;
36855;SDS011;22788;51.434;6.786;2023-08-12T13:24:07;5.72;;;5.10;;
36855;SDS011;22788;51.434;6.786;2023-08-12T13:26:33;6.78;;;6.07;;
36855;SDS011;22788;51.434;6.786;2023-08-12T13:28:59;6.30;;;4.45;;
36855;SDS011;22788;51.434;6.786;2023-08-12T13:31:24;7.20;;;4.30;;
36855;SDS011;22788;51.434;6.786;2023-08-12T13:33:50;5.50;;;3.90;;
36855;SDS011;22788;51.434;6.786;2023-08-12T13:36:15;4.90;;;3.53;;
36855;SDS011;22788;51.434;6.786;2023-08-12T13:38:42;4.45;;;3.40;;
36855;SDS011;22788;51.434;6.786;2023-08-12T13:41:08;4.07;;;3.25;;
36855;SDS011;22788;51.434;6.786;2023-08-12T13:43:34;3.70;;;3.38;;
36855;SDS011;22788;51.434;6.786;2023-08-12T13:46:00;3.80;;;3.45;;
36855;SDS011;22788;51.434;6.786;2023-08-12T13:48:26;4.32;;;3.92;;
36855;SDS011;22788;51.434;6.786;2023-08-12T13:50:51;5.68;;;5.07;;
36855;SDS011;22788;51.434;6.786;2023-08-12T13:53:17;5.18;;;4.13;;
36855;SDS011;22788;51.434;6.786;2023-08-12T13:55:44;7.43;;;6.40;;
36855;SDS011;22788;51.434;6.786;2023-08-12T13:58:11;4.18;;;3.40;;
36855;SDS011;22788;51.434;6.786;2023-08-12T14:00:36;3.65;;;3.35;;
36855;SDS011;22788;51.434;6.786;2023-08-12T14:03:02;3.83;;;3.53;;
36855;SDS011;22788;51.434;6.786;2023-08-12T14:05:28;5.07;;;4.35;;
36855;SDS011;22788;51.434;6.786;2023-08-12T14:07:54;3.50;;;3.20;;
36855;SDS011;22788;51.434;6.786;2023-08-12T14:10:19;4.45;;;4.05;;
36855;SDS011;22788;51.434;6.786;2023-08-12T14:12:46;6.53;;;5.28;;
36855;SDS011;22788;51.434;6.786;2023-08-12T14:15:12;4.85;;;4.45;;
36855;SDS011;22788;51.434;6.786;2023-08-12T14:17:37;5.05;;;4.15;;
36855;SDS011;22788;51.434;6.786;2023-08-12T14:20:03;4.00;;;3.50;;
36855;SDS011;22788;51.434;6.786;2023-08-12T14:22:30;3.78;;;3.40;;
36855;SDS011;22788;51.434;6.786;2023-08-12T14:24:55;4.90;;;4.15;;
36855;SDS011;22788;51.434;6.786;2023-08-12T14:27:21;3.40;;;3.08;;
36855;SDS011;22788;51.434;6.786;2023-08-12T14:29:48;4.00;;;3.60;;
36855;SDS011;22788;51.434;6.786;2023-08-12T14:32:14;4.25;;;3.83;;
36855;SDS011;22788;51.434;6.786;2023-08-12T14:34:39;5.60;;;4.30;;
36855;SDS011;22788;51.434;6.786;2023-08-12T14:37:05;7.15;;;5.20;;
36855;SDS011;22788;51.434;6.786;2023-08-12T14:39:31;5.80;;;4.30;;
36855;SDS011;22788;51.434;6.786;2023-08-12T14:41:56;7.05;;;5.57;;